Time;durP1;ratioP1;P1;durP2;ratioP2;P2;SDS_P1;SDS_P2;PMS_P1;PMS_P2;Temp;Humidity;BMP_temperature;BMP_pressure;BME280_temperature;BME280_humidity;BME280_pressure;Samples;Min_cycle;Max_cycle;Signal;HPM_P1;HPM_P2
2023/09/17 00:01:53;;;;;;;23.85;15.63;;;;;;;18.06;100.00;101247.78;4952062;28;20035;-71
2023/09/17 00:04:18;;;;;;;20.92;15.25;;;;;;;18.03;100.00;101256.34;4950953;28;20407;-71
2023/09/17 00:06:44;;;;;;;19.55;14.15;;;;;;;18.00;100.00;101234.63;4982250;28;20035;-71
2023/09/17 00:09:09;;;;;;;21.33;15.73;;;;;;;17.96;100.00;101238.69;4970003;28;20843;-71
2023/09/17 00:11:35;;;;;;;22.73;13.88;;;;;;;17.93;100.00;101229.84;4956462;28;20118;-72
2023/09/17 00:14:00;;;;;;;25.35;15.65;;;;;;;17.86;100.00;101229.59;4951747;28;20046;-72
2023/09/17 00:16:31;;;;;;;17.33;12.52;;;;;;;17.78;100.00;101218.47;4950976;28;20023;-71
2023/09/17 00:18:57;;;;;;;17.88;11.85;;;;;;;17.72;100.00;101222.66;4982991;28;20043;-72
2023/09/17 00:21:22;;;;;;;16.02;12.70;;;;;;;17.70;100.00;101218.28;4966707;28;20340;-72
2023/09/17 00:23:48;;;;;;;18.17;12.80;;;;;;;17.70;100.00;101212.78;4951664;28;20042;-72
2023/09/17 00:26:13;;;;;;;20.80;12.77;;;;;;;17.65;100.00;101210.47;4982248;28;20134;-72
2023/09/17 00:28:43;;;;;;;21.85;12.10;;;;;;;17.60;100.00;101215.56;4951321;28;20039;-72
2023/09/17 00:31:08;;;;;;;16.98;11.73;;;;;;;17.54;100.00;101214.28;4963854;28;20105;-73
2023/09/17 00:33:33;;;;;;;15.80;10.07;;;;;;;17.49;97.53;101224.84;4966187;28;20039;-72
2023/09/17 00:35:59;;;;;;;16.48;11.07;;;;;;;17.46;99.78;101235.28;4951120;28;20098;-73
2023/09/17 00:38:24;;;;;;;13.35;9.73;;;;;;;17.41;99.41;101223.84;4952072;28;20102;-73
2023/09/17 00:40:49;;;;;;;16.95;9.27;;;;;;;17.38;98.55;101227.75;4982018;28;20102;-72
2023/09/17 00:43:15;;;;;;;16.15;10.82;;;;;;;17.37;100.00;101236.16;4950977;28;20052;-72
2023/09/17 00:45:42;;;;;;;15.73;10.88;;;;;;;17.36;100.00;101226.19;4950682;28;20047;-72
2023/09/17 00:48:09;;;;;;;15.77;10.02;;;;;;;17.34;100.00;101227.16;4950988;28;20491;-72
2023/09/17 00:50:35;;;;;;;14.52;10.35;;;;;;;17.29;100.00;101223.97;4981549;28;20038;-72
2023/09/17 00:53:01;;;;;;;16.35;10.55;;;;;;;17.23;99.63;101226.47;4951671;29;20023;-72
2023/09/17 00:55:29;;;;;;;15.38;10.80;;;;;;;17.21;100.00;101229.38;4950291;28;20039;-71
2023/09/17 00:57:57;;;;;;;17.60;10.38;;;;;;;17.19;100.00;101225.88;4982072;28;20043;-73
2023/09/17 01:00:24;;;;;;;12.43;10.13;;;;;;;17.14;99.49;101214.44;4951016;28;20069;-72
2023/09/17 01:02:50;;;;;;;15.25;10.48;;;;;;;17.08;100.00;101215.03;4950722;28;20035;-72
2023/09/17 01:05:16;;;;;;;14.70;10.52;;;;;;;17.01;100.00;101214.72;4950701;29;20529;-74
2023/09/17 01:07:42;;;;;;;13.85;9.98;;;;;;;16.98;100.00;101215.03;4965601;28;20386;-73
2023/09/17 01:10:08;;;;;;;15.25;10.57;;;;;;;16.95;100.00;101214.44;4950228;28;20035;-74
2023/09/17 01:12:34;;;;;;;16.52;10.73;;;;;;;16.93;100.00;101205.47;4981651;28;20054;-73
2023/09/17 01:15:01;;;;;;;16.33;11.38;;;;;;;16.89;100.00;101209.53;4981134;28;20027;-73
2023/09/17 01:17:27;;;;;;;23.13;10.98;;;;;;;16.79;100.00;101198.53;4950326;28;20046;-74
2023/09/17 01:19:54;;;;;;;15.70;11.48;;;;;;;16.70;100.00;101199.34;4969960;28;20456;-73
2023/09/17 01:22:26;;;;;;;19.08;11.80;;;;;;;16.66;100.00;101208.88;4952952;28;20047;-75
2023/09/17 01:25:04;;;;;;;16.85;11.45;;;;;;;16.64;100.00;101194.41;4951377;29;20047;-73
2023/09/17 01:27:30;;;;;;;16.85;11.88;;;;;;;16.61;100.00;101200.19;4980975;28;20050;-74
2023/09/17 01:29:55;;;;;;;21.10;12.02;;;;;;;16.52;100.00;101189.03;4950191;28;20610;-73
2023/09/17 01:32:21;;;;;;;15.80;12.23;;;;;;;16.46;100.00;101186.88;4950718;28;20130;-74
2023/09/17 01:34:52;;;;;;;16.58;12.02;;;;;;;16.49;100.00;101191.19;4965389;28;20038;-74
2023/09/17 01:37:26;;;;;;;18.15;12.98;;;;;;;16.50;100.00;101187.44;4981204;28;20050;-74
2023/09/17 01:39:58;;;;;;;14.20;11.05;;;;;;;16.54;100.00;101191.63;4951030;28;20039;-74
2023/09/17 01:42:25;;;;;;;21.48;12.60;;;;;;;16.56;100.00;101186.88;4950083;28;20042;-74
2023/09/17 01:44:52;;;;;;;19.40;12.52;;;;;;;16.53;100.00;101181.66;4949933;28;20051;-74
2023/09/17 01:47:19;;;;;;;20.80;11.43;;;;;;;16.51;100.00;101186.44;4949660;28;20079;-74
2023/09/17 01:49:46;;;;;;;24.38;12.73;;;;;;;16.47;100.00;101182.25;4950218;28;20031;-74
2023/09/17 01:52:12;;;;;;;21.38;13.20;;;;;;;16.45;100.00;101185.09;4950063;28;20027;-74
2023/09/17 01:54:38;;;;;;;19.95;13.20;;;;;;;16.42;100.00;101176.31;4949858;28;20126;-73
2023/09/17 01:57:03;;;;;;;20.70;12.57;;;;;;;16.37;100.00;101173.97;4949491;28;20466;-74
2023/09/17 01:59:29;;;;;;;17.40;12.70;;;;;;;16.34;100.00;101166.00;4963578;28;20355;-73
2023/09/17 02:01:54;;;;;;;16.75;12.60;;;;;;;16.29;100.00;101152.69;4981033;28;20047;-73
2023/09/17 02:04:19;;;;;;;15.30;11.52;;;;;;;16.30;100.00;101148.06;4980854;28;20146;-73
2023/09/17 02:06:45;;;;;;;17.02;13.00;;;;;;;16.30;100.00;101151.69;4949411;28;20033;-74
2023/09/17 02:09:12;;;;;;;20.88;12.50;;;;;;;16.27;100.00;101156.59;4950063;29;20055;-73
2023/09/17 02:11:38;;;;;;;22.50;12.60;;;;;;;16.28;100.00;101170.19;4980237;28;20391;-74
2023/09/17 02:14:06;;;;;;;20.58;13.75;;;;;;;16.27;100.00;101164.81;4964440;28;20039;-73
2023/09/17 02:16:31;;;;;;;19.80;13.20;;;;;;;16.29;100.00;101165.56;4979457;28;20038;-73
2023/09/17 02:19:01;;;;;;;17.67;13.05;;;;;;;16.28;100.00;101180.31;4964448;28;20043;-73
2023/09/17 02:21:26;;;;;;;19.17;13.07;;;;;;;16.31;100.00;101174.53;4949668;28;20376;-74
2023/09/17 02:23:51;;;;;;;19.23;12.63;;;;;;;16.31;100.00;101169.03;4964875;28;20426;-74
2023/09/17 02:26:17;;;;;;;22.27;13.98;;;;;;;16.28;100.00;101161.97;4949306;28;20039;-73
2023/09/17 02:28:42;;;;;;;20.02;14.27;;;;;;;16.25;100.00;101161.38;4949189;28;20495;-73
2023/09/17 02:31:07;;;;;;;21.27;13.85;;;;;;;16.26;100.00;101149.38;4948978;28;20022;-73
2023/09/17 02:33:33;;;;;;;19.90;13.85;;;;;;;16.28;100.00;101153.72;4964264;28;20054;-73
2023/09/17 02:35:58;;;;;;;22.95;14.27;;;;;;;16.27;100.00;101148.34;4964104;28;20074;-73
2023/09/17 02:38:26;;;;;;;18.98;14.63;;;;;;;16.26;100.00;101147.47;4950039;28;20122;-73
2023/09/17 02:40:51;;;;;;;20.30;14.73;;;;;;;16.25;100.00;101145.75;4949382;28;20113;-73
2023/09/17 02:43:17;;;;;;;24.33;15.98;;;;;;;16.26;100.00;101149.38;4963846;28;20387;-73
2023/09/17 02:45:43;;;;;;;22.02;15.50;;;;;;;16.24;100.00;101135.78;4948796;28;20074;-73
2023/09/17 02:48:09;;;;;;;22.48;15.82;;;;;;;16.22;100.00;101131.44;4963962;28;20241;-73
2023/09/17 02:50:34;;;;;;;21.45;15.43;;;;;;;16.17;100.00;101129.09;4980013;28;20542;-73
2023/09/17 02:53:00;;;;;;;24.60;15.18;;;;;;;16.15;100.00;101122.03;4949403;28;20035;-73
2023/09/17 02:55:25;;;;;;;23.40;15.50;;;;;;;16.15;100.00;101130.28;4952121;28;20035;-73
2023/09/17 02:57:50;;;;;;;21.33;15.38;;;;;;;16.14;100.00;101126.66;4984734;28;20490;-73
2023/09/17 03:00:17;;;;;;;24.05;15.50;;;;;;;16.14;100.00;101132.16;4952292;28;20490;-73
2023/09/17 03:02:47;;;;;;;22.35;15.68;;;;;;;16.12;100.00;101130.53;4983984;28;20078;-74
2023/09/17 03:05:14;;;;;;;22.30;15.45;;;;;;;16.02;100.00;101127.78;4953261;28;20402;-74
2023/09/17 03:07:40;;;;;;;21.65;14.57;;;;;;;15.91;100.00;101127.88;4953347;28;20034;-73
2023/09/17 03:10:10;;;;;;;22.95;14.75;;;;;;;15.86;100.00;101130.19;4983821;28;20035;-73
2023/09/17 03:12:36;;;;;;;22.23;14.55;;;;;;;15.78;100.00;101130.88;4983701;28;20031;-73
2023/09/17 03:15:03;;;;;;;19.90;14.65;;;;;;;15.68;100.00;101122.59;4983881;28;20038;-73
2023/09/17 03:17:28;;;;;;;23.40;14.80;;;;;;;15.59;100.00;101122.50;4983438;28;20076;-72
2023/09/17 03:19:53;;;;;;;21.52;15.27;;;;;;;15.52;100.00;101113.94;4953672;28;20526;-73
2023/09/17 03:22:19;;;;;;;21.23;14.88;;;;;;;15.48;100.00;101115.22;4952986;28;20093;-73
2023/09/17 03:24:44;;;;;;;21.20;14.55;;;;;;;15.45;100.00;101115.50;4990589;28;20038;-73
2023/09/17 03:27:10;;;;;;;20.23;15.10;;;;;;;15.44;100.00;101122.00;5002891;28;20506;-73
2023/09/17 03:29:36;;;;;;;20.77;15.60;;;;;;;15.37;100.00;101118.94;4970321;28;20023;-73
2023/09/17 03:32:01;;;;;;;19.08;14.25;;;;;;;15.31;100.00;101122.22;4992916;28;20081;-73
2023/09/17 03:34:27;;;;;;;22.83;14.98;;;;;;;15.23;100.00;101127.50;4983854;28;20514;-73
2023/09/17 03:36:53;;;;;;;20.60;14.15;;;;;;;15.17;100.00;101130.78;4953364;28;20039;-73
2023/09/17 03:39:18;;;;;;;20.83;15.13;;;;;;;15.18;100.00;101127.91;4983551;28;20375;-73
2023/09/17 03:41:43;;;;;;;25.55;14.82;;;;;;;15.20;100.00;101114.94;4966801;28;20043;-73
2023/09/17 03:44:09;;;;;;;21.55;14.90;;;;;;;15.17;100.00;101126.16;4983159;28;20352;-73
2023/09/17 03:46:37;;;;;;;25.92;16.33;;;;;;;15.21;100.00;101121.28;4967114;28;20487;-73
2023/09/17 03:49:03;;;;;;;22.02;16.17;;;;;;;15.24;100.00;101119.13;4967400;28;20042;-74
2023/09/17 03:51:29;;;;;;;22.10;15.90;;;;;;;15.27;100.00;101118.88;4983107;28;20034;-73
2023/09/17 03:53:55;;;;;;;22.13;15.20;;;;;;;15.26;100.00;101117.13;4983873;28;20031;-72
2023/09/17 03:56:21;;;;;;;22.70;15.63;;;;;;;15.31;100.00;101114.84;4983121;28;20411;-73
2023/09/17 03:58:48;;;;;;;22.13;15.27;;;;;;;15.37;100.00;101121.66;4951872;28;20061;-73
2023/09/17 04:01:13;;;;;;;23.55;15.70;;;;;;;15.39;100.00;101125.16;4982302;28;20043;-73
2023/09/17 04:03:39;;;;;;;22.40;15.60;;;;;;;15.35;100.00;101120.94;4983245;28;20450;-73
2023/09/17 04:06:04;;;;;;;21.17;15.35;;;;;;;15.41;100.00;101125.00;4952298;28;20065;-73
2023/09/17 04:08:30;;;;;;;23.65;16.00;;;;;;;15.45;100.00;101119.13;4967172;28;20069;-73
2023/09/17 04:10:55;;;;;;;25.17;16.42;;;;;;;15.46;100.00;101117.25;4952005;29;20102;-72
2023/09/17 04:13:21;;;;;;;23.65;15.52;;;;;;;15.46;100.00;101117.25;4952339;28;20027;-73
2023/09/17 04:15:47;;;;;;;23.17;15.63;;;;;;;15.51;100.00;101118.56;4951927;29;20142;-73
2023/09/17 04:18:12;;;;;;;24.58;16.83;;;;;;;15.49;100.00;101106.00;4952512;28;20046;-73
2023/09/17 04:20:38;;;;;;;26.52;17.30;;;;;;;15.52;100.00;101111.22;4982948;28;20072;-73
2023/09/17 04:23:04;;;;;;;22.90;16.83;;;;;;;15.54;100.00;101106.47;4950793;28;20035;-73
2023/09/17 04:25:31;;;;;;;23.90;16.98;;;;;;;15.59;100.00;101106.94;4951641;28;20050;-73
2023/09/17 04:27:57;;;;;;;22.30;15.82;;;;;;;15.60;100.00;101107.78;4982665;28;20031;-72
2023/09/17 04:30:23;;;;;;;23.55;16.77;;;;;;;15.60;100.00;101108.66;4966903;28;20038;-73
2023/09/17 04:32:51;;;;;;;25.02;16.80;;;;;;;15.62;100.00;101103.91;4967080;28;20099;-73
2023/09/17 04:35:17;;;;;;;23.58;16.58;;;;;;;15.63;100.00;101105.66;4967079;28;20101;-73
2023/09/17 04:37:44;;;;;;;24.55;17.33;;;;;;;15.66;100.00;101107.25;4951981;28;20065;-73
2023/09/17 04:40:12;;;;;;;25.23;17.05;;;;;;;15.65;100.00;101103.66;4951462;28;20571;-73
2023/09/17 04:42:46;;;;;;;28.25;17.20;;;;;;;15.68;100.00;101108.88;4982953;28;20035;-73
2023/09/17 04:45:32;;;;;;;26.45;17.58;;;;;;;15.70;100.00;101109.59;4966653;28;20069;-73
2023/09/17 04:47:58;;;;;;;25.08;16.58;;;;;;;15.73;100.00;101106.59;4982442;28;20047;-72
2023/09/17 04:50:24;;;;;;;30.25;17.20;;;;;;;15.76;100.00;101102.69;4986613;28;20437;-72
2023/09/17 04:52:50;;;;;;;27.80;18.42;;;;;;;15.75;100.00;101104.56;4952275;28;20035;-72
2023/09/17 04:55:15;;;;;;;26.25;17.58;;;;;;;15.78;100.00;101097.94;4986547;28;20030;-73
2023/09/17 04:57:41;;;;;;;24.65;17.08;;;;;;;15.79;100.00;101099.66;4970352;28;20034;-72
2023/09/17 05:00:10;;;;;;;23.33;17.55;;;;;;;15.79;100.00;101105.16;4984590;28;20055;-72
2023/09/17 05:02:39;;;;;;;25.90;18.77;;;;;;;15.77;100.00;101096.22;4971744;28;20050;-73
2023/09/17 05:05:10;;;;;;;26.45;18.00;;;;;;;15.80;100.00;101107.75;4965956;28;20023;-73
2023/09/17 05:07:39;;;;;;;23.90;16.92;;;;;;;15.79;100.00;101105.16;4965550;28;20038;-73
2023/09/17 05:10:07;;;;;;;25.38;17.58;;;;;;;15.81;100.00;101112.25;4981550;28;20071;-72
2023/09/17 05:12:34;;;;;;;28.48;18.35;;;;;;;15.82;100.00;101108.50;4950738;28;20482;-73
2023/09/17 05:15:00;;;;;;;28.45;19.60;;;;;;;15.77;100.00;101101.69;4950389;28;20038;-73
2023/09/17 05:17:26;;;;;;;28.55;20.33;;;;;;;15.72;100.00;101109.47;4980814;28;20031;-72
2023/09/17 05:19:52;;;;;;;26.17;19.98;;;;;;;15.69;100.00;101112.47;4982397;28;20371;-73
2023/09/17 05:22:17;;;;;;;28.08;18.75;;;;;;;15.69;100.00;101102.38;4981958;28;20066;-72
2023/09/17 05:24:43;;;;;;;29.92;20.17;;;;;;;15.71;100.00;101104.97;4968583;28;20042;-73
2023/09/17 05:27:08;;;;;;;28.60;20.33;;;;;;;15.70;100.00;101106.84;5001079;28;20089;-73
2023/09/17 05:29:34;;;;;;;28.30;20.25;;;;;;;15.65;100.00;101114.63;4993193;28;20475;-73
2023/09/17 05:31:59;;;;;;;31.75;20.35;;;;;;;15.60;100.00;101121.50;4980537;28;20456;-72
2023/09/17 05:34:25;;;;;;;24.00;18.30;;;;;;;15.60;100.00;101111.41;4966129;28;20034;-73
2023/09/17 05:36:50;;;;;;;27.25;19.55;;;;;;;15.66;100.00;101115.50;4981531;28;20086;-73
2023/09/17 05:39:16;;;;;;;28.05;19.70;;;;;;;15.70;100.00;101119.69;4981470;28;20031;-73
2023/09/17 05:41:41;;;;;;;27.27;19.10;;;;;;;15.69;100.00;101116.09;4979219;28;20060;-73
2023/09/17 05:44:06;;;;;;;28.85;20.92;;;;;;;15.68;100.00;101117.09;4983445;28;20045;-73
2023/09/17 05:46:32;;;;;;;25.58;19.98;;;;;;;15.71;100.00;101119.56;4994180;28;20414;-73
2023/09/17 05:48:57;;;;;;;32.30;21.40;;;;;;;15.70;100.00;101117.81;4983886;28;20536;-72
2023/09/17 05:51:23;;;;;;;30.80;21.23;;;;;;;15.67;100.00;101120.00;4965651;28;20057;-73
2023/09/17 05:53:48;;;;;;;29.25;20.92;;;;;;;15.66;100.00;101118.22;4967916;28;20507;-73
2023/09/17 05:56:13;;;;;;;27.00;20.88;;;;;;;15.69;100.00;101118.84;4980474;28;20030;-72
2023/09/17 05:58:40;;;;;;;29.10;21.13;;;;;;;15.66;100.00;101127.31;4997442;28;20394;-73
2023/09/17 06:01:06;;;;;;;30.27;20.70;;;;;;;15.66;100.00;101113.63;4981077;28;20089;-72
2023/09/17 06:03:32;;;;;;;30.02;21.52;;;;;;;15.69;100.00;101116.09;4981226;28;20074;-73
2023/09/17 06:05:58;;;;;;;32.20;22.52;;;;;;;15.66;100.00;101116.34;4981310;28;20584;-72
2023/09/17 06:08:26;;;;;;;29.70;21.35;;;;;;;15.61;100.00;101115.88;4984724;28;20027;-73
2023/09/17 06:10:51;;;;;;;31.88;22.80;;;;;;;15.60;100.00;101116.00;4953910;28;20035;-73
2023/09/17 06:13:18;;;;;;;27.27;20.95;;;;;;;15.61;100.00;101109.53;4965086;28;20372;-73
2023/09/17 06:15:45;;;;;;;29.40;22.40;;;;;;;15.62;100.00;101114.88;4966305;28;20030;-72
2023/09/17 06:18:11;;;;;;;30.20;21.10;;;;;;;15.68;100.00;101118.97;4981437;28;20043;-73
2023/09/17 06:20:37;;;;;;;32.80;22.55;;;;;;;15.70;100.00;101115.09;4985197;28;20043;-73
2023/09/17 06:23:02;;;;;;;31.95;21.88;;;;;;;15.74;100.00;101112.94;4962924;28;20031;-73
2023/09/17 06:25:27;;;;;;;30.35;21.92;;;;;;;15.78;100.00;101114.41;4981154;28;20054;-73
2023/09/17 06:27:53;;;;;;;33.03;22.92;;;;;;;15.78;100.00;101118.00;4972623;28;20062;-73
2023/09/17 06:30:19;;;;;;;31.15;22.38;;;;;;;15.80;100.00;101110.50;4991200;28;20059;-73
2023/09/17 06:32:45;;;;;;;33.00;24.02;;;;;;;15.83;100.00;101114.84;4978729;28;20494;-73
2023/09/17 06:35:11;;;;;;;29.90;22.55;;;;;;;15.85;100.00;101115.56;4983714;28;20161;-73
2023/09/17 06:37:36;;;;;;;32.50;22.75;;;;;;;15.91;100.00;101115.03;4983587;28;20046;-73
2023/09/17 06:40:02;;;;;;;31.92;23.00;;;;;;;15.95;100.00;101118.38;4973824;28;20422;-72
2023/09/17 06:42:30;;;;;;;30.80;21.48;;;;;;;15.97;100.00;101121.84;4881991;28;22202;-73
2023/09/17 06:44:55;;;;;;;29.92;22.27;;;;;;;16.00;100.00;101107.84;4952564;28;20070;-73
2023/09/17 06:47:20;;;;;;;30.08;21.80;;;;;;;16.02;100.00;101111.31;4964686;28;20035;-72
2023/09/17 06:49:46;;;;;;;30.88;22.52;;;;;;;16.03;100.00;101111.16;4995579;28;20026;-72
2023/09/17 06:52:11;;;;;;;31.75;23.35;;;;;;;16.07;100.00;101109.88;4965308;28;20085;-73
2023/09/17 06:54:37;;;;;;;29.48;21.98;;;;;;;16.10;100.00;101116.09;4967038;28;20081;-72
2023/09/17 06:57:02;;;;;;;30.40;21.88;;;;;;;16.13;100.00;101110.31;4948785;28;20042;-73
2023/09/17 06:59:28;;;;;;;31.65;22.20;;;;;;;16.18;100.00;101111.66;4979467;28;20042;-73
2023/09/17 07:01:53;;;;;;;31.48;23.05;;;;;;;16.23;100.00;101109.34;4960289;28;20093;-73
2023/09/17 07:04:19;;;;;;;30.90;21.35;;;;;;;16.30;100.00;101107.75;4948985;29;20114;-72
2023/09/17 07:06:44;;;;;;;27.48;20.35;;;;;;;16.33;100.00;101104.75;4958026;28;20451;-72
2023/09/17 07:09:10;;;;;;;29.50;22.17;;;;;;;16.43;100.00;101107.50;4948375;28;20055;-73
2023/09/17 07:11:35;;;;;;;30.92;22.58;;;;;;;16.48;100.00;101105.19;4964457;28;20085;-73
2023/09/17 07:14:05;;;;;;;33.15;22.38;;;;;;;16.53;100.00;101113.84;4965183;28;20038;-73
2023/09/17 07:16:31;;;;;;;30.77;20.90;;;;;;;16.59;100.00;101109.66;4966763;28;20065;-72
2023/09/17 07:18:56;;;;;;;29.50;22.83;;;;;;;16.65;100.00;101106.38;4960378;28;20034;-72
2023/09/17 07:21:22;;;;;;;30.55;23.33;;;;;;;16.70;100.00;101109.53;4958822;28;20122;-73
2023/09/17 07:23:50;;;;;;;32.05;22.05;;;;;;;16.73;100.00;101108.41;4959018;28;20117;-72
2023/09/17 07:26:16;;;;;;;32.15;22.15;;;;;;;16.77;100.00;101110.72;4954817;28;20041;-73
2023/09/17 07:28:43;;;;;;;34.38;23.15;;;;;;;16.81;100.00;101106.66;4957122;28;20399;-72
2023/09/17 07:31:10;;;;;;;36.00;24.42;;;;;;;16.87;100.00;101102.47;4981778;28;20101;-72
2023/09/17 07:33:36;;;;;;;39.58;23.58;;;;;;;16.92;100.00;101105.66;4965161;28;20027;-73
2023/09/17 07:36:01;;;;;;;33.50;24.58;;;;;;;16.95;100.00;101099.00;4951183;28;20038;-73
2023/09/17 07:38:26;;;;;;;33.60;23.58;;;;;;;17.03;100.00;101100.00;4948562;29;20027;-72
2023/09/17 07:40:52;;;;;;;38.97;25.98;;;;;;;17.09;100.00;101099.41;4981414;28;20050;-72
2023/09/17 07:43:17;;;;;;;34.47;25.45;;;;;;;17.15;100.00;101097.94;4952129;29;20047;-72
2023/09/17 07:45:42;;;;;;;36.15;25.20;;;;;;;17.22;100.00;101103.75;4952205;28;20405;-72
2023/09/17 07:48:08;;;;;;;34.72;25.35;;;;;;;17.29;100.00;101105.72;4952487;28;20042;-72
2023/09/17 07:50:33;;;;;;;35.03;24.45;;;;;;;17.36;100.00;101103.28;4952779;29;20051;-73
2023/09/17 07:52:59;;;;;;;36.85;26.25;;;;;;;17.40;100.00;101104.72;4966913;28;20031;-72
2023/09/17 07:55:25;;;;;;;33.92;25.33;;;;;;;17.39;100.00;101094.69;4953959;28;20034;-73
2023/09/17 07:57:51;;;;;;;38.60;25.50;;;;;;;17.43;100.00;101104.38;4952855;28;20483;-73
2023/09/17 08:00:16;;;;;;;37.10;26.85;;;;;;;17.46;100.00;101106.84;4982785;28;20051;-73
2023/09/17 08:02:45;;;;;;;35.63;24.58;;;;;;;17.46;100.00;101115.09;4952084;28;20035;-72
2023/09/17 08:05:10;;;;;;;34.53;24.50;;;;;;;17.53;100.00;101119.00;4983317;28;20047;-73
2023/09/17 08:07:36;;;;;;;33.95;23.88;;;;;;;17.58;100.00;101124.94;4952371;28;20391;-73
2023/09/17 08:10:03;;;;;;;39.15;27.10;;;;;;;17.63;100.00;101127.22;4951856;28;20495;-73
2023/09/17 08:12:29;;;;;;;36.40;26.58;;;;;;;17.64;100.00;101122.59;4951908;28;20546;-72
2023/09/17 08:14:54;;;;;;;40.90;28.05;;;;;;;17.61;100.00;101118.25;4952464;29;20043;-73
2023/09/17 08:17:20;;;;;;;42.40;28.02;;;;;;;17.65;100.00;101125.19;4951626;28;20035;-73
2023/09/17 08:19:45;;;;;;;44.22;27.88;;;;;;;17.67;100.00;101123.13;4952146;29;20110;-73
2023/09/17 08:22:10;;;;;;;38.67;26.00;;;;;;;17.69;100.00;101118.38;4952123;28;20073;-73
2023/09/17 08:24:36;;;;;;;37.38;25.17;;;;;;;17.78;100.00;101120.25;4982604;28;20074;-73
2023/09/17 08:27:01;;;;;;;39.40;26.45;;;;;;;17.85;100.00;101123.25;4982710;28;20023;-72
2023/09/17 08:29:26;;;;;;;42.85;27.55;;;;;;;17.85;100.00;101109.47;4981990;28;20064;-72
2023/09/17 08:31:52;;;;;;;42.83;28.98;;;;;;;17.90;100.00;101120.03;4952077;28;20119;-72
2023/09/17 08:34:17;;;;;;;43.58;26.52;;;;;;;17.94;100.00;101119.59;4983014;28;20039;-72
2023/09/17 08:36:44;;;;;;;37.97;27.08;;;;;;;18.00;100.00;101124.50;4982807;28;20035;-73
2023/09/17 08:39:11;;;;;;;38.17;25.38;;;;;;;18.06;100.00;101131.28;4951790;29;20054;-72
2023/09/17 08:41:38;;;;;;;37.28;27.35;;;;;;;18.16;100.00;101120.22;4951135;29;20031;-72
2023/09/17 08:44:04;;;;;;;41.10;29.85;;;;;;;18.29;100.00;101123.47;4951782;28;20055;-73
2023/09/17 08:46:31;;;;;;;43.42;30.13;;;;;;;18.40;100.00;101122.38;4950751;28;20530;-72
2023/09/17 08:48:58;;;;;;;45.13;29.92;;;;;;;18.50;100.00;101114.91;4966448;28;20514;-73
2023/09/17 08:51:25;;;;;;;47.92;28.42;;;;;;;18.60;100.00;101124.84;4950978;28;20022;-73
2023/09/17 08:54:04;;;;;;;48.70;32.90;;;;;;;18.63;100.00;101129.16;4952082;29;20589;-73
2023/09/17 08:56:32;;;;;;;40.88;29.20;;;;;;;18.69;100.00;101134.06;4965803;28;20043;-73
2023/09/17 08:59:08;;;;;;;46.03;30.80;;;;;;;18.69;100.00;101135.97;4964057;28;20083;-72
2023/09/17 09:01:36;;;;;;;47.58;33.90;;;;;;;18.70;100.00;101135.84;4950445;28;20063;-73
2023/09/17 09:04:02;;;;;;;47.00;32.42;;;;;;;18.71;100.00;101140.31;4951415;29;20138;-73
2023/09/17 09:06:29;;;;;;;46.45;31.50;;;;;;;18.71;100.00;101147.72;4951119;28;20015;-73
2023/09/17 09:08:55;;;;;;;49.97;31.65;;;;;;;18.75;100.00;101151.91;4951926;29;20839;-73
2023/09/17 09:11:21;;;;;;;49.10;31.80;;;;;;;18.78;100.00;101149.66;4951066;28;20038;-73
2023/09/17 09:13:48;;;;;;;48.80;32.58;;;;;;;18.84;100.00;101150.97;4950854;29;20039;-73
2023/09/17 09:16:13;;;;;;;53.25;33.95;;;;;;;18.93;100.00;101150.00;4950594;28;20034;-73
2023/09/17 09:18:39;;;;;;;55.03;37.47;;;;;;;19.01;100.00;101160.22;4949943;29;20031;-73
2023/09/17 09:21:05;;;;;;;54.70;36.05;;;;;;;19.02;100.00;101156.44;4951001;28;20046;-73
2023/09/17 09:23:31;;;;;;;54.80;34.42;;;;;;;19.03;100.00;101161.81;4950749;28;20043;-73
2023/09/17 09:25:56;;;;;;;51.28;35.28;;;;;;;19.06;100.00;101155.97;4950364;28;20399;-73
2023/09/17 09:28:21;;;;;;;57.20;35.15;;;;;;;19.08;100.00;101151.19;4951421;28;20031;-74
2023/09/17 09:30:47;;;;;;;55.78;36.13;;;;;;;19.13;100.00;101153.47;4950495;28;20036;-73
2023/09/17 09:33:13;;;;;;;55.20;36.00;;;;;;;19.16;100.00;101153.13;4950563;28;20380;-73
2023/09/17 09:35:39;;;;;;;49.42;33.90;;;;;;;19.16;100.00;101143.97;4950291;29;20061;-73
2023/09/17 09:38:05;;;;;;;50.08;34.05;;;;;;;19.16;100.00;101146.75;4981431;28;20039;-73
2023/09/17 09:40:34;;;;;;;51.50;33.75;;;;;;;19.13;100.00;101139.66;4950277;28;20094;-73
2023/09/17 09:43:00;;;;;;;49.50;33.13;;;;;;;19.15;100.00;101140.38;4950093;28;20024;-73
2023/09/17 09:45:27;;;;;;;53.47;32.80;;;;;;;19.17;100.00;101137.47;4948721;28;20049;-73
2023/09/17 09:47:54;;;;;;;50.03;32.45;;;;;;;19.20;100.00;101138.00;4981515;28;20046;-73
2023/09/17 09:50:31;;;;;;;49.20;32.95;;;;;;;19.22;100.00;101135.09;4950575;29;20043;-73
2023/09/17 09:52:56;;;;;;;47.10;31.75;;;;;;;19.16;100.00;101141.22;4976484;28;20470;-73
2023/09/17 09:55:24;;;;;;;49.95;30.52;;;;;;;19.12;100.00;101151.75;4973182;28;20047;-73
2023/09/17 09:57:49;;;;;;;50.60;32.30;;;;;;;19.11;100.00;101150.84;4950151;28;20050;-73
2023/09/17 10:00:15;;;;;;;49.65;31.50;;;;;;;19.12;100.00;101137.94;4949350;28;20051;-73
2023/09/17 10:02:42;;;;;;;53.13;32.72;;;;;;;19.16;100.00;101143.97;4950037;28;20507;-73
2023/09/17 10:05:12;;;;;;;48.90;30.80;;;;;;;19.17;100.00;101141.09;4976296;28;20121;-73
2023/09/17 10:07:38;;;;;;;53.22;31.90;;;;;;;19.27;100.00;101143.75;4957809;28;20066;-73
2023/09/17 10:10:03;;;;;;;56.83;32.90;;;;;;;19.27;100.00;101143.75;4949778;29;20043;-73
2023/09/17 10:12:29;;;;;;;49.15;31.50;;;;;;;19.36;100.00;101138.13;4950362;29;20035;-73
2023/09/17 10:14:55;;;;;;;50.50;31.27;;;;;;;19.41;100.00;101143.16;4949970;28;20799;-73
2023/09/17 10:17:20;;;;;;;54.00;32.67;;;;;;;19.47;100.00;101131.47;4980965;28;20035;-73
2023/09/17 10:19:49;;;;;;;50.95;31.00;;;;;;;19.47;100.00;101125.09;4980809;28;20054;-73
2023/09/17 10:22:15;;;;;;;50.92;31.17;;;;;;;19.60;100.00;101133.84;4948373;28;20118;-73
2023/09/17 10:24:42;;;;;;;47.70;28.85;;;;;;;19.68;100.00;101133.00;4949958;29;20047;-72
2023/09/17 10:27:08;;;;;;;50.58;29.20;;;;;;;19.74;100.00;101126.84;4949759;28;20424;-73
2023/09/17 10:29:38;;;;;;;51.38;32.47;;;;;;;19.79;100.00;101119.78;4949455;28;20047;-73
2023/09/17 10:32:04;;;;;;;51.17;30.30;;;;;;;19.92;100.00;101115.72;4950183;28;20094;-73
2023/09/17 10:34:35;;;;;;;51.83;29.63;;;;;;;20.02;100.00;101119.22;4951561;28;21791;-73
2023/09/17 10:37:04;;;;;;;54.17;29.75;;;;;;;20.11;100.00;101127.38;4962889;28;20034;-73
2023/09/17 10:39:32;;;;;;;51.15;29.42;;;;;;;20.13;100.00;101128.06;5000872;28;20096;-73
2023/09/17 10:42:01;;;;;;;51.08;29.10;;;;;;;20.23;100.00;101119.63;4965126;28;20101;-73
2023/09/17 10:44:29;;;;;;;51.25;29.92;;;;;;;20.28;100.00;101121.91;4963517;28;20045;-73
2023/09/17 10:46:58;;;;;;;49.90;27.80;;;;;;;20.37;100.00;101115.34;4972172;28;20123;-73
2023/09/17 10:49:26;;;;;;;46.88;27.95;;;;;;;20.46;100.00;101114.34;4962836;28;20045;-73
2023/09/17 10:51:53;;;;;;;49.28;28.25;;;;;;;20.52;100.00;101113.72;4996306;28;20039;-73
2023/09/17 10:54:18;;;;;;;50.97;28.65;;;;;;;20.62;100.00;101124.63;4983501;28;20084;-74
2023/09/17 10:56:45;;;;;;;47.97;28.20;;;;;;;20.70;100.00;101121.00;4968303;28;20322;-73
2023/09/17 10:59:14;;;;;;;47.33;28.17;;;;;;;20.76;100.00;101109.28;4958679;28;20027;-73